createdAt,value
2022-08-09T00:00:06.298Z,22.39
2022-08-09T00:02:34.247Z,22.35
2022-08-09T00:06:15.413Z,22.41
2022-08-09T00:07:49.464Z,22.25
2022-08-09T00:10:24.800Z,22.34
2022-08-09T00:12:53.003Z,22.53
2022-08-09T00:15:26.484Z,22.47
2022-08-09T00:18:05.861Z,22.56
2022-08-09T00:20:42.319Z,22.62
2022-08-09T00:23:56.241Z,22.59
2022-08-09T00:26:07.026Z,22.48
2022-08-09T00:28:35.046Z,22.21
2022-08-09T00:31:09.197Z,22.05
2022-08-09T00:33:52.046Z,22.19
2022-08-09T00:36:19.955Z,21.91
2022-08-09T00:38:50.771Z,21.79
2022-08-09T00:44:16.633Z,21.84
2022-08-09T00:44:16.857Z,21.87
2022-08-09T00:46:56.164Z,21.87
2022-08-09T00:49:24.847Z,21.83
2022-08-09T00:51:57.180Z,21.75
2022-08-09T00:54:31.388Z,21.78
2022-08-09T00:57:02.928Z,21.78
2022-08-09T00:59:41.649Z,21.88
2022-08-09T01:02:22.203Z,21.91
2022-08-09T01:05:00.944Z,21.95
2022-08-09T01:07:59.952Z,21.81
2022-08-09T01:11:15.149Z,22.16
2022-08-09T01:14:00.090Z,22.12
2022-08-09T01:16:36.016Z,22.27
2022-08-09T01:19:39.639Z,22.14
2022-08-09T01:22:25.047Z,22.26
2022-08-09T01:24:57.285Z,22.35
2022-08-09T01:27:29.067Z,22.34
2022-08-09T01:29:59.579Z,22.43
2022-08-09T01:32:34.820Z,22.37
2022-08-09T01:35:37.666Z,22.40
2022-08-09T01:38:08.050Z,22.56
2022-08-09T01:40:42.535Z,22.63
2022-08-09T01:43:11.305Z,22.44
2022-08-09T01:45:44.663Z,22.61
2022-08-09T01:48:16.675Z,22.76
2022-08-09T01:50:48.861Z,22.69
2022-08-09T01:53:23.978Z,22.69
2022-08-09T01:55:57.310Z,22.50
2022-08-09T01:58:27.292Z,22.52
2022-08-09T02:00:58.039Z,22.34
2022-08-09T02:03:25.772Z,21.76
2022-08-09T02:06:04.199Z,21.87
2022-08-09T02:08:57.425Z,21.77
2022-08-09T02:11:40.253Z,21.71
2022-08-09T02:14:15.711Z,21.78
2022-08-09T02:17:00.067Z,21.80
2022-08-09T02:19:43.195Z,21.86
2022-08-09T02:22:19.150Z,21.90
2022-08-09T02:25:02.256Z,21.98
2022-08-09T02:27:43.531Z,22.09
2022-08-09T02:30:19.569Z,21.86
2022-08-09T02:32:47.702Z,21.48
2022-08-09T02:36:01.058Z,21.48
2022-08-09T02:38:27.902Z,21.55
2022-08-09T02:41:02.089Z,21.19
2022-08-09T02:43:42.504Z,21.33
2022-08-09T02:46:22.780Z,21.22
2022-08-09T02:48:52.864Z,21.09
2022-08-09T02:51:22.780Z,20.71
2022-08-09T02:54:00.458Z,21.40
2022-08-09T02:56:30.543Z,21.48
2022-08-09T02:59:02.290Z,21.56
2022-08-09T03:01:43.250Z,21.61
2022-08-09T03:04:19.814Z,21.63
2022-08-09T03:06:48.806Z,21.65
2022-08-09T03:09:17.838Z,21.48
2022-08-09T03:12:05.591Z,21.65
2022-08-09T03:14:33.238Z,21.86
2022-08-09T03:17:01.797Z,22.28
2022-08-09T03:19:52.618Z,22.41
2022-08-09T03:22:25.523Z,22.59
2022-08-09T03:25:05.843Z,22.61
2022-08-09T03:27:50.841Z,22.53
2022-08-09T03:30:29.240Z,22.93
2022-08-09T03:33:05.523Z,22.95
2022-08-09T03:36:11.630Z,22.93
2022-08-09T03:38:28.923Z,22.97
2022-08-09T03:40:58.058Z,23.02
2022-08-09T03:43:25.467Z,23.02
2022-08-09T03:46:04.918Z,22.88
2022-08-09T03:48:51.730Z,22.81
2022-08-09T03:51:44.452Z,22.78
2022-08-09T03:54:14.425Z,22.87
2022-08-09T03:56:42.459Z,22.77
2022-08-09T03:59:13.841Z,23.07
2022-08-09T04:01:49.702Z,23.22
2022-08-09T04:04:18.323Z,23.09
2022-08-09T04:06:49.225Z,22.89
2022-08-09T04:09:47.501Z,22.78
2022-08-09T04:12:11.802Z,22.63
2022-08-09T04:15:00.393Z,22.50
2022-08-09T04:17:27.207Z,22.59
2022-08-09T04:19:56.631Z,22.64
2022-08-09T04:22:23.845Z,22.45
2022-08-09T04:24:50.744Z,22.14
2022-08-09T04:27:21.927Z,21.80
2022-08-09T04:29:49.597Z,21.24
2022-08-09T04:32:31.413Z,21.96
2022-08-09T04:35:01.289Z,21.77
2022-08-09T04:37:42.037Z,22.11
2022-08-09T04:40:28.615Z,22.30
2022-08-09T04:42:59.658Z,22.55
2022-08-09T04:45:30.336Z,22.64
2022-08-09T04:48:04.015Z,22.71
2022-08-09T04:50:37.675Z,22.74
2022-08-09T04:53:13.503Z,22.68
2022-08-09T04:55:58.652Z,22.67
2022-08-09T04:58:27.791Z,22.96
2022-08-09T05:00:56.163Z,23.20
2022-08-09T05:03:41.265Z,23.39
2022-08-09T05:06:25.857Z,23.68
2022-08-09T05:09:00.451Z,24.02
2022-08-09T05:11:32.352Z,24.39
2022-08-09T05:14:05.763Z,24.70
2022-08-09T05:16:58.071Z,25.27
2022-08-09T05:19:26.100Z,25.56
2022-08-09T05:21:55.953Z,25.49
2022-08-09T05:24:24.624Z,25.88
2022-08-09T05:26:53.164Z,26.21
2022-08-09T05:29:23.925Z,26.50
2022-08-09T05:31:57.046Z,26.85
2022-08-09T05:34:31.268Z,27.09
2022-08-09T05:37:01.458Z,27.45
2022-08-09T05:39:36.422Z,27.65
2022-08-09T05:42:20.607Z,27.63
2022-08-09T05:44:55.877Z,28.19
2022-08-09T05:47:24.793Z,28.49
2022-08-09T05:50:31.295Z,28.58
2022-08-09T05:52:42.209Z,28.78
2022-08-09T05:55:20.767Z,29.07
2022-08-09T05:57:51.191Z,28.80
2022-08-09T06:00:29.006Z,29.09
2022-08-09T06:03:01.411Z,29.22
2022-08-09T06:05:54.512Z,29.28
2022-08-09T06:08:19.431Z,29.27
2022-08-09T06:10:52.104Z,29.45
2022-08-09T06:13:20.636Z,29.58
2022-08-09T06:15:52.637Z,29.52
2022-08-09T06:18:25.305Z,29.47
2022-08-09T06:20:57.827Z,29.68
2022-08-09T06:23:57.902Z,29.83
2022-08-09T06:26:20.098Z,30.04
2022-08-09T06:29:00.035Z,29.99
2022-08-09T06:31:40.376Z,30.22
2022-08-09T06:34:22.660Z,30.46
2022-08-09T06:36:57.410Z,30.56
2022-08-09T06:39:48.164Z,30.41
2022-08-09T06:42:15.927Z,30.43
2022-08-09T06:44:43.460Z,30.45
2022-08-09T06:47:10.696Z,30.65
2022-08-09T06:50:12.234Z,30.63
2022-08-09T06:52:26.223Z,30.98
2022-08-09T06:54:54.227Z,30.39
2022-08-09T06:57:25.967Z,30.11
2022-08-09T07:00:56.139Z,30.41
2022-08-09T07:02:57.517Z,30.51
2022-08-09T07:06:02.418Z,30.56
2022-08-09T07:08:12.453Z,30.84
2022-08-09T07:10:39.428Z,30.93
2022-08-09T07:13:27.674Z,31.11
2022-08-09T07:16:43.014Z,31.08
2022-08-09T07:18:40.392Z,31.38
2022-08-09T07:21:08.277Z,30.93
2022-08-09T07:23:36.277Z,30.89
2022-08-09T07:26:04.402Z,31.24
2022-08-09T07:28:34.600Z,31.30
2022-08-09T07:31:02.213Z,31.42
2022-08-09T07:33:53.248Z,31.37
2022-08-09T07:36:18.764Z,31.44
2022-08-09T07:38:52.598Z,31.42
2022-08-09T07:41:26.403Z,31.62
2022-08-09T07:43:56.047Z,31.75
2022-08-09T07:46:23.516Z,31.53
2022-08-09T07:48:59.584Z,31.90
2022-08-09T07:52:05.255Z,31.77
2022-08-09T07:54:15.318Z,32.23
2022-08-09T07:56:49.640Z,32.23
2022-08-09T07:59:33.916Z,32.26
2022-08-09T08:02:07.083Z,32.45
2022-08-09T08:04:37.346Z,32.38
2022-08-09T08:07:21.575Z,32.64
2022-08-09T08:10:07.527Z,32.66
2022-08-09T08:12:42.639Z,33.06
2022-08-09T08:15:13.749Z,33.49
2022-08-09T08:17:53.852Z,33.18
2022-08-09T08:20:29.490Z,33.32
2022-08-09T08:23:01.650Z,32.91
2022-08-09T08:25:44.736Z,32.13
2022-08-09T08:28:15.338Z,33.17
2022-08-09T08:30:44.413Z,33.54
2022-08-09T08:33:23.007Z,33.41
2022-08-09T08:35:59.846Z,33.53
2022-08-09T08:38:29.012Z,33.87
2022-08-09T08:40:57.084Z,33.83
2022-08-09T08:43:24.329Z,34.31
2022-08-09T08:46:17.122Z,33.45
2022-08-09T08:48:51.681Z,33.49
2022-08-09T08:51:21.155Z,33.09
2022-08-09T08:54:03.503Z,33.38
2022-08-09T08:56:37.499Z,33.72
2022-08-09T08:59:19.734Z,33.01
2022-08-09T09:01:57.223Z,33.23
2022-08-09T09:04:31.978Z,34.00
2022-08-09T09:07:10.121Z,33.33
2022-08-09T09:09:57.992Z,33.65
2022-08-09T09:12:29.905Z,33.80
2022-08-09T09:15:00.967Z,33.41
2022-08-09T09:17:48.089Z,34.19
2022-08-09T09:20:16.021Z,34.31
2022-08-09T09:23:01.729Z,33.96
2022-08-09T09:26:02.078Z,33.62
2022-08-09T09:29:02.875Z,33.10
2022-08-09T09:32:06.598Z,33.05
2022-08-09T09:34:14.672Z,33.72
2022-08-09T09:36:46.789Z,34.54
2022-08-09T09:39:20.450Z,33.43
2022-08-09T09:41:50.890Z,33.29
2022-08-09T09:44:35.120Z,33.44
2022-08-09T09:47:13.534Z,32.89
2022-08-09T09:50:07.363Z,32.36
2022-08-09T09:52:54.053Z,33.76
2022-08-09T09:55:27.953Z,33.82
2022-08-09T09:58:04.814Z,34.19
2022-08-09T10:00:54.597Z,33.99
2022-08-09T10:03:58.044Z,34.22
2022-08-09T10:06:42.567Z,33.75
2022-08-09T10:09:23.184Z,33.39
2022-08-09T10:12:11.826Z,33.91
2022-08-09T10:17:39.554Z,34.00
2022-08-09T10:20:35.682Z,34.23
2022-08-09T10:23:32.531Z,33.29
2022-08-09T10:26:07.755Z,33.79
2022-08-09T10:28:39.915Z,34.68
2022-08-09T10:34:08.258Z,33.72
2022-08-09T10:36:38.967Z,33.99
2022-08-09T10:39:15.567Z,34.10
2022-08-09T10:41:47.726Z,34.34
2022-08-09T10:44:18.911Z,34.09
2022-08-09T10:47:20.551Z,33.13
2022-08-09T10:50:16.136Z,33.83
2022-08-09T10:53:02.098Z,34.60
2022-08-09T10:55:35.871Z,34.91
2022-08-09T10:58:37.458Z,34.82
2022-08-09T11:03:14.275Z,35.03
2022-08-09T11:04:20.005Z,33.54
2022-08-09T11:06:59.993Z,33.84
2022-08-09T11:09:47.549Z,33.98
2022-08-09T11:12:29.442Z,34.16
2022-08-09T11:15:20.504Z,34.25
2022-08-09T11:18:02.931Z,34.46
2022-08-09T11:20:57.107Z,34.72
2022-08-09T11:23:30.260Z,34.80
2022-08-09T11:25:57.232Z,34.74
2022-08-09T11:28:54.156Z,34.79
2022-08-09T11:31:49.580Z,34.92
2022-08-09T11:34:42.996Z,35.28
2022-08-09T11:37:18.194Z,34.53
2022-08-09T11:40:04.000Z,34.48
2022-08-09T11:42:48.559Z,34.57
2022-08-09T11:45:44.242Z,34.54
2022-08-09T11:48:26.758Z,34.31
2022-08-09T11:52:49.292Z,34.80
2022-08-09T11:54:27.843Z,35.26
2022-08-09T11:58:00.662Z,35.64
2022-08-09T12:00:30.821Z,35.80
2022-08-09T12:03:00.685Z,35.85
2022-08-09T12:05:48.884Z,34.83
2022-08-09T12:08:21.765Z,34.55
2022-08-09T12:10:54.748Z,34.42
2022-08-09T12:14:10.790Z,34.03
2022-08-09T12:16:39.991Z,33.75
2022-08-09T12:19:11.334Z,33.61
2022-08-09T12:21:50.820Z,33.85
2022-08-09T12:24:24.395Z,34.87
2022-08-09T12:28:58.297Z,35.33
2022-08-09T12:30:01.992Z,35.44
2022-08-09T12:32:41.349Z,35.20
2022-08-09T12:35:12.375Z,35.66
2022-08-09T12:37:49.888Z,35.38
2022-08-09T12:40:19.124Z,34.47
2022-08-09T12:42:50.415Z,34.52
2022-08-09T12:45:33.975Z,35.39
2022-08-09T12:48:10.767Z,35.43
2022-08-09T12:50:48.164Z,35.44
2022-08-09T12:53:37.247Z,35.01
2022-08-09T12:56:39.225Z,34.33
2022-08-09T12:59:14.355Z,34.06
2022-08-09T13:01:46.806Z,34.46
2022-08-09T13:04:35.899Z,35.39
2022-08-09T13:07:16.924Z,35.92
2022-08-09T13:09:55.219Z,35.55
2022-08-09T13:12:27.087Z,34.89
2022-08-09T13:15:07.710Z,34.41
2022-08-09T13:18:03.480Z,35.17
2022-08-09T13:21:04.064Z,35.31
2022-08-09T13:24:16.068Z,35.75
2022-08-09T13:26:42.395Z,35.24
2022-08-09T13:29:28.586Z,35.74
2022-08-09T13:32:13.680Z,36.26
2022-08-09T13:34:46.202Z,35.98
2022-08-09T13:37:51.315Z,34.80
2022-08-09T13:41:50.812Z,34.92
2022-08-09T13:42:50.747Z,35.41
2022-08-09T13:45:19.499Z,34.69
2022-08-09T13:47:51.829Z,34.21
2022-08-09T13:50:30.040Z,34.07
2022-08-09T13:52:57.745Z,33.98
2022-08-09T13:55:24.662Z,34.13
2022-08-09T13:57:58.026Z,34.65
2022-08-09T14:00:28.469Z,34.97
2022-08-09T14:03:03.809Z,35.45
2022-08-09T14:05:56.803Z,35.95
2022-08-09T14:08:31.569Z,36.10
2022-08-09T14:10:59.633Z,35.95
2022-08-09T14:14:22.449Z,36.44
2022-08-09T14:16:19.270Z,36.40
2022-08-09T14:18:49.386Z,35.86
2022-08-09T14:21:24.394Z,35.52
2022-08-09T14:23:53.684Z,35.11
2022-08-09T14:26:21.549Z,34.32
2022-08-09T14:28:48.420Z,34.33
2022-08-09T14:31:15.212Z,34.72
2022-08-09T14:33:42.253Z,34.34
2022-08-09T14:36:19.785Z,34.04
2022-08-09T14:38:52.599Z,33.78
2022-08-09T14:41:26.713Z,33.75
2022-08-09T14:44:07.477Z,33.79
2022-08-09T14:47:00.750Z,33.95
2022-08-09T14:49:25.892Z,34.00
2022-08-09T14:51:58.957Z,34.13
2022-08-09T14:54:27.979Z,33.83
2022-08-09T14:56:59.049Z,33.89
2022-08-09T14:59:28.453Z,33.76
2022-08-09T15:01:55.599Z,33.74
2022-08-09T15:04:25.174Z,33.60
2022-08-09T15:06:52.521Z,33.51
2022-08-09T15:10:03.367Z,33.58
2022-08-09T15:12:09.539Z,33.65
2022-08-09T15:14:38.965Z,33.69
2022-08-09T15:17:09.905Z,33.67
2022-08-09T15:19:59.172Z,33.42
2022-08-09T15:22:26.031Z,33.06
2022-08-09T15:24:53.290Z,33.27
2022-08-09T15:27:20.070Z,33.13
2022-08-09T15:30:55.390Z,33.27
2022-08-09T15:32:33.774Z,33.19
2022-08-09T15:35:01.430Z,33.29
2022-08-09T15:37:37.508Z,33.25
2022-08-09T15:40:25.273Z,33.28
2022-08-09T15:42:59.666Z,33.22
2022-08-09T15:45:29.392Z,33.02
2022-08-09T15:48:06.509Z,33.07
2022-08-09T15:50:39.143Z,33.03
2022-08-09T15:53:32.694Z,32.93
2022-08-09T15:56:04.669Z,32.88
2022-08-09T15:58:40.615Z,32.77
2022-08-09T16:01:08.408Z,32.77
2022-08-09T16:03:38.599Z,32.77
2022-08-09T16:06:32.703Z,32.65
2022-08-09T16:08:56.285Z,32.59
2022-08-09T16:11:28.809Z,32.45
2022-08-09T16:14:03.928Z,32.41
2022-08-09T16:16:37.339Z,32.27
2022-08-09T16:19:07.554Z,32.23
2022-08-09T16:21:35.537Z,32.19
2022-08-09T16:24:13.030Z,32.03
2022-08-09T16:26:53.671Z,32.05
2022-08-09T16:29:37.286Z,32.00
2022-08-09T16:32:19.130Z,31.88
2022-08-09T16:34:56.589Z,31.86
2022-08-09T16:37:55.134Z,31.82
2022-08-09T16:40:14.122Z,31.66
2022-08-09T16:42:48.316Z,31.76
2022-08-09T16:45:19.659Z,31.69
2022-08-09T16:48:43.170Z,31.65
2022-08-09T16:50:38.623Z,31.63
2022-08-09T16:53:06.239Z,31.61
2022-08-09T16:55:59.089Z,31.49
2022-08-09T16:58:21.045Z,31.35
2022-08-09T17:00:49.107Z,31.26
2022-08-09T17:03:21.348Z,31.16
2022-08-09T17:06:09.381Z,31.15
2022-08-09T17:08:43.016Z,31.02
2022-08-09T17:11:15.232Z,30.93
2022-08-09T17:13:45.028Z,30.83
2022-08-09T17:16:12.100Z,30.81
2022-08-09T17:18:39.138Z,30.46
2022-08-09T17:21:05.906Z,30.17
2022-08-09T17:24:21.381Z,30.09
2022-08-09T17:26:31.315Z,30.00
2022-08-09T17:28:59.607Z,29.74
2022-08-09T17:31:26.815Z,29.60
2022-08-09T17:33:56.958Z,29.40
2022-08-09T17:36:25.898Z,29.38
2022-08-09T17:38:58.664Z,29.24
2022-08-09T17:41:38.922Z,29.15
2022-08-09T17:44:38.805Z,29.00
2022-08-09T17:46:55.568Z,28.89
2022-08-09T17:49:22.861Z,28.79
2022-08-09T17:51:50.508Z,28.74
2022-08-09T17:54:17.736Z,28.66
2022-08-09T17:56:52.070Z,28.50
2022-08-09T17:59:19.354Z,28.43
2022-08-09T18:02:08.025Z,28.47
2022-08-09T18:04:33.197Z,28.37
2022-08-09T18:06:59.971Z,28.41
2022-08-09T18:09:41.056Z,28.39
2022-08-09T18:12:17.637Z,28.38
2022-08-09T18:14:50.094Z,28.16
2022-08-09T18:17:27.501Z,28.29
2022-08-09T18:20:59.346Z,28.28
2022-08-09T18:22:55.555Z,28.02
2022-08-09T18:25:51.063Z,27.74
2022-08-09T18:28:21.560Z,27.77
2022-08-09T18:30:57.514Z,27.88
2022-08-09T18:33:24.398Z,27.72
2022-08-09T18:35:59.098Z,27.68
2022-08-09T18:38:27.393Z,27.70
2022-08-09T18:40:55.532Z,27.52
2022-08-09T18:43:23.602Z,27.45
2022-08-09T18:46:46.261Z,27.47
2022-08-09T18:48:37.561Z,27.21
2022-08-09T18:51:04.768Z,27.19
2022-08-09T18:53:56.398Z,27.10
2022-08-09T18:56:28.021Z,27.04
2022-08-09T18:58:56.444Z,26.85
2022-08-09T19:01:24.028Z,26.83
2022-08-09T19:04:01.523Z,26.67
2022-08-09T19:06:33.980Z,26.67
2022-08-09T19:09:02.700Z,26.57
2022-08-09T19:11:37.496Z,26.59
2022-08-09T19:14:06.276Z,26.58
2022-08-09T19:16:36.445Z,26.52
2022-08-09T19:19:19.313Z,26.45
2022-08-09T19:22:06.811Z,26.34
2022-08-09T19:25:11.956Z,26.27
2022-08-09T19:27:22.633Z,26.20
2022-08-09T19:30:21.497Z,26.12
2022-08-09T19:32:38.250Z,26.03
2022-08-09T19:35:05.818Z,25.98
2022-08-09T19:37:54.913Z,25.90
2022-08-09T19:40:20.621Z,25.72
2022-08-09T19:42:49.703Z,25.82
2022-08-09T19:45:17.041Z,25.53
2022-08-09T19:47:44.903Z,25.66
2022-08-09T19:50:49.606Z,25.67
2022-08-09T19:53:04.473Z,25.75
2022-08-09T19:56:03.306Z,25.58
2022-08-09T19:58:29.725Z,25.55
2022-08-09T20:00:57.905Z,25.58
2022-08-09T20:04:09.550Z,25.67
2022-08-09T20:06:23.056Z,25.73
2022-08-09T20:08:56.538Z,25.71
2022-08-09T20:11:25.794Z,25.67
2022-08-09T20:13:54.586Z,25.63
2022-08-09T20:16:33.459Z,25.61
2022-08-09T20:19:47.669Z,25.63
2022-08-09T20:21:57.269Z,25.56
2022-08-09T20:24:31.775Z,25.56
2022-08-09T20:27:02.920Z,25.56
2022-08-09T20:29:37.833Z,25.57
2022-08-09T20:32:30.749Z,25.67
2022-08-09T20:34:57.938Z,25.69
2022-08-09T20:37:25.580Z,25.61
2022-08-09T20:40:18.393Z,25.46
2022-08-09T20:42:59.581Z,25.37
2022-08-09T20:45:59.419Z,25.30
2022-08-09T20:48:25.587Z,25.15
2022-08-09T20:50:58.081Z,25.15
2022-08-09T20:53:35.220Z,25.12
2022-08-09T20:56:06.407Z,25.08
2022-08-09T20:58:35.985Z,25.08
2022-08-09T21:01:33.055Z,25.17
2022-08-09T21:05:49.798Z,25.27
2022-08-09T21:06:41.511Z,25.32
2022-08-09T21:09:11.749Z,25.28
2022-08-09T21:14:30.835Z,25.17
2022-08-09T21:16:59.353Z,25.33
2022-08-09T21:20:18.832Z,25.35
2022-08-09T21:22:35.906Z,25.33
2022-08-09T21:25:20.880Z,25.33
2022-08-09T21:27:51.173Z,25.22
2022-08-09T21:30:19.730Z,25.04
2022-08-09T21:32:49.754Z,25.05
2022-08-09T21:35:16.786Z,24.98
2022-08-09T21:37:56.896Z,24.97
2022-08-09T21:40:30.131Z,24.95
2022-08-09T21:42:59.298Z,25.11
2022-08-09T21:45:26.861Z,25.09
2022-08-09T21:47:54.456Z,25.06
2022-08-09T21:50:35.988Z,24.99
2022-08-09T21:53:40.285Z,25.08
2022-08-09T21:55:55.080Z,24.89
2022-08-09T21:58:30.929Z,24.63
2022-08-09T22:00:58.463Z,24.44
2022-08-09T22:03:26.168Z,24.28
2022-08-09T22:05:54.314Z,24.42
2022-08-09T22:08:23.029Z,24.47
2022-08-09T22:11:26.456Z,24.68
2022-08-09T22:13:43.254Z,24.84
2022-08-09T22:16:12.099Z,24.99
2022-08-09T22:18:53.407Z,24.95
2022-08-09T22:21:24.869Z,24.92
2022-08-09T22:23:59.195Z,25.13
2022-08-09T22:26:34.878Z,24.85
2022-08-09T22:29:06.964Z,24.93
2022-08-09T22:31:35.713Z,25.08
2022-08-09T22:34:02.456Z,25.14
2022-08-09T22:36:29.244Z,25.20
2022-08-09T22:39:46.824Z,25.35
2022-08-09T22:41:59.762Z,25.43
2022-08-09T22:44:32.655Z,25.46
2022-08-09T22:48:18.625Z,25.45
2022-08-09T22:49:47.679Z,25.11
2022-08-09T22:52:19.708Z,25.03
2022-08-09T22:54:48.349Z,24.76
2022-08-09T22:57:15.268Z,24.75
2022-08-09T22:59:55.858Z,24.89
2022-08-09T23:02:25.537Z,24.77
2022-08-09T23:04:54.715Z,24.85
2022-08-09T23:08:27.483Z,24.96
2022-08-09T23:10:31.746Z,24.93
2022-08-09T23:12:59.081Z,24.98
2022-08-09T23:15:26.804Z,24.86
2022-08-09T23:17:53.587Z,24.82
2022-08-09T23:20:20.586Z,24.69
2022-08-09T23:22:47.347Z,24.56
2022-08-09T23:25:14.280Z,24.67
2022-08-09T23:28:14.972Z,24.83
2022-08-09T23:30:28.442Z,24.88
2022-08-09T23:32:55.315Z,24.99
2022-08-09T23:35:22.264Z,24.95
2022-08-09T23:37:49.053Z,24.97
2022-08-09T23:40:17.173Z,24.98
2022-08-09T23:42:44.040Z,24.98
2022-08-09T23:45:11.314Z,24.88
2022-08-09T23:47:58.179Z,24.87
2022-08-09T23:50:25.239Z,24.90
2022-08-09T23:52:52.061Z,24.86
2022-08-09T23:55:19.083Z,24.83
2022-08-09T23:58:08.261Z,24.74
